sensor_id;sensor_type;location;lat;lon;timestamp;temperature;humidity
31731;DHT22;18310;55.586;12.286;2022-10-16T00:01:39;16.80;76.20
31731;DHT22;18310;55.586;12.286;2022-10-16T00:04:42;16.70;76.10
31731;DHT22;18310;55.586;12.286;2022-10-16T00:07:46;16.70;76.20
31731;DHT22;18310;55.586;12.286;2022-10-16T00:10:50;16.60;76.40
31731;DHT22;18310;55.586;12.286;2022-10-16T00:13:57;16.60;76.50
31731;DHT22;18310;55.586;12.286;2022-10-16T00:17:01;16.50;76.50
31731;DHT22;18310;55.586;12.286;2022-10-16T00:20:06;16.50;76.60
31731;DHT22;18310;55.586;12.286;2022-10-16T00:23:10;16.40;76.90
31731;DHT22;18310;55.586;12.286;2022-10-16T00:26:18;16.40;76.90
31731;DHT22;18310;55.586;12.286;2022-10-16T00:29:22;16.60;77.50
31731;DHT22;18310;55.586;12.286;2022-10-16T00:32:25;16.30;77.20
31731;DHT22;18310;55.586;12.286;2022-10-16T00:35:31;16.30;77.40
31731;DHT22;18310;55.586;12.286;2022-10-16T00:38:34;16.20;77.90
31731;DHT22;18310;55.586;12.286;2022-10-16T00:41:41;16.30;78.00
31731;DHT22;18310;55.586;12.286;2022-10-16T00:44:47;16.30;78.20
31731;DHT22;18310;55.586;12.286;2022-10-16T00:47:56;16.30;78.10
31731;DHT22;18310;55.586;12.286;2022-10-16T00:51:00;16.30;77.90
31731;DHT22;18310;55.586;12.286;2022-10-16T00:54:08;16.30;77.90
31731;DHT22;18310;55.586;12.286;2022-10-16T00:57:18;16.30;78.10
31731;DHT22;18310;55.586;12.286;2022-10-16T01:00:23;17.10;78.00
31731;DHT22;18310;55.586;12.286;2022-10-16T01:03:32;16.50;77.90
31731;DHT22;18310;55.586;12.286;2022-10-16T01:06:51;16.30;77.70
31731;DHT22;18310;55.586;12.286;2022-10-16T01:10:09;16.30;78.00
31731;DHT22;18310;55.586;12.286;2022-10-16T01:13:26;16.20;77.70
31731;DHT22;18310;55.586;12.286;2022-10-16T01:16:37;16.40;78.20
31731;DHT22;18310;55.586;12.286;2022-10-16T01:20:07;16.10;77.90
31731;DHT22;18310;55.586;12.286;2022-10-16T01:23:29;16.10;77.90
31731;DHT22;18310;55.586;12.286;2022-10-16T01:27:00;16.00;77.50
31731;DHT22;18310;55.586;12.286;2022-10-16T01:30:12;16.00;77.60
31731;DHT22;18310;55.586;12.286;2022-10-16T01:33:20;16.00;77.20
31731;DHT22;18310;55.586;12.286;2022-10-16T01:36:35;15.80;77.10
31731;DHT22;18310;55.586;12.286;2022-10-16T01:39:45;15.80;77.40
31731;DHT22;18310;55.586;12.286;2022-10-16T01:42:57;15.80;77.30
31731;DHT22;18310;55.586;12.286;2022-10-16T01:46:04;15.70;77.60
31731;DHT22;18310;55.586;12.286;2022-10-16T01:49:09;15.70;77.40
31731;DHT22;18310;55.586;12.286;2022-10-16T01:52:21;15.70;77.60
31731;DHT22;18310;55.586;12.286;2022-10-16T01:55:30;15.60;77.80
31731;DHT22;18310;55.586;12.286;2022-10-16T01:58:43;15.60;77.50
31731;DHT22;18310;55.586;12.286;2022-10-16T02:01:53;15.60;77.60
31731;DHT22;18310;55.586;12.286;2022-10-16T02:05:08;15.50;77.50
31731;DHT22;18310;55.586;12.286;2022-10-16T02:08:18;15.50;77.70
31731;DHT22;18310;55.586;12.286;2022-10-16T02:11:23;15.50;77.60
31731;DHT22;18310;55.586;12.286;2022-10-16T02:14:28;15.40;77.60
31731;DHT22;18310;55.586;12.286;2022-10-16T02:17:33;15.40;77.80
31731;DHT22;18310;55.586;12.286;2022-10-16T02:20:43;15.40;77.90
31731;DHT22;18310;55.586;12.286;2022-10-16T02:24:06;15.30;78.30
31731;DHT22;18310;55.586;12.286;2022-10-16T02:27:21;15.30;78.60
31731;DHT22;18310;55.586;12.286;2022-10-16T02:30:33;15.30;78.20
31731;DHT22;18310;55.586;12.286;2022-10-16T02:33:42;15.30;78.20
31731;DHT22;18310;55.586;12.286;2022-10-16T02:36:50;15.80;78.30
31731;DHT22;18310;55.586;12.286;2022-10-16T02:39:56;15.30;78.10
31731;DHT22;18310;55.586;12.286;2022-10-16T02:43:03;15.20;78.00
31731;DHT22;18310;55.586;12.286;2022-10-16T02:46:10;15.20;78.10
31731;DHT22;18310;55.586;12.286;2022-10-16T02:49:15;15.20;78.00
31731;DHT22;18310;55.586;12.286;2022-10-16T02:52:20;15.20;77.90
31731;DHT22;18310;55.586;12.286;2022-10-16T02:55:26;14.80;77.80
31731;DHT22;18310;55.586;12.286;2022-10-16T02:58:30;15.10;78.20
31731;DHT22;18310;55.586;12.286;2022-10-16T03:01:36;15.10;78.10
31731;DHT22;18310;55.586;12.286;2022-10-16T03:04:39;15.10;78.30
31731;DHT22;18310;55.586;12.286;2022-10-16T03:07:43;15.00;78.20
31731;DHT22;18310;55.586;12.286;2022-10-16T03:10:47;15.00;78.30
31731;DHT22;18310;55.586;12.286;2022-10-16T03:13:51;15.00;78.60
31731;DHT22;18310;55.586;12.286;2022-10-16T03:16:55;15.00;78.50
31731;DHT22;18310;55.586;12.286;2022-10-16T03:20:00;15.00;78.80
31731;DHT22;18310;55.586;12.286;2022-10-16T03:23:03;15.00;78.80
31731;DHT22;18310;55.586;12.286;2022-10-16T03:26:06;15.00;78.80
31731;DHT22;18310;55.586;12.286;2022-10-16T03:29:10;15.00;78.80
31731;DHT22;18310;55.586;12.286;2022-10-16T03:32:15;15.00;79.10
31731;DHT22;18310;55.586;12.286;2022-10-16T03:35:20;15.00;79.40
31731;DHT22;18310;55.586;12.286;2022-10-16T03:38:23;15.00;79.70
31731;DHT22;18310;55.586;12.286;2022-10-16T03:41:26;15.10;79.90
31731;DHT22;18310;55.586;12.286;2022-10-16T03:44:31;15.10;80.10
31731;DHT22;18310;55.586;12.286;2022-10-16T03:47:37;15.20;81.00
31731;DHT22;18310;55.586;12.286;2022-10-16T03:50:41;15.30;80.20
31731;DHT22;18310;55.586;12.286;2022-10-16T03:53:44;15.40;80.20
31731;DHT22;18310;55.586;12.286;2022-10-16T03:56:48;15.50;80.30
31731;DHT22;18310;55.586;12.286;2022-10-16T03:59:51;15.50;80.20
31731;DHT22;18310;55.586;12.286;2022-10-16T04:02:55;15.60;80.20
31731;DHT22;18310;55.586;12.286;2022-10-16T04:05:58;15.60;80.20
31731;DHT22;18310;55.586;12.286;2022-10-16T04:09:03;15.70;80.10
31731;DHT22;18310;55.586;12.286;2022-10-16T04:12:07;15.80;80.80
31731;DHT22;18310;55.586;12.286;2022-10-16T04:15:10;15.80;79.70
31731;DHT22;18310;55.586;12.286;2022-10-16T04:18:15;15.90;79.60
31731;DHT22;18310;55.586;12.286;2022-10-16T04:21:20;15.90;79.50
31731;DHT22;18310;55.586;12.286;2022-10-16T04:24:23;15.90;79.40
31731;DHT22;18310;55.586;12.286;2022-10-16T04:27:27;16.00;79.40
31731;DHT22;18310;55.586;12.286;2022-10-16T04:30:33;16.00;79.20
31731;DHT22;18310;55.586;12.286;2022-10-16T04:33:37;16.00;79.10
31731;DHT22;18310;55.586;12.286;2022-10-16T04:36:43;16.10;79.10
31731;DHT22;18310;55.586;12.286;2022-10-16T04:39:47;16.10;79.00
31731;DHT22;18310;55.586;12.286;2022-10-16T04:42:51;16.10;78.80
31731;DHT22;18310;55.586;12.286;2022-10-16T04:45:55;16.10;78.70
31731;DHT22;18310;55.586;12.286;2022-10-16T04:48:59;16.20;78.70
31731;DHT22;18310;55.586;12.286;2022-10-16T04:52:03;16.20;78.50
31731;DHT22;18310;55.586;12.286;2022-10-16T04:55:06;16.20;78.50
31731;DHT22;18310;55.586;12.286;2022-10-16T04:58:14;16.30;78.50
31731;DHT22;18310;55.586;12.286;2022-10-16T05:01:18;16.30;78.40
31731;DHT22;18310;55.586;12.286;2022-10-16T05:04:23;15.80;78.10
31731;DHT22;18310;55.586;12.286;2022-10-16T05:07:27;16.40;78.30
31731;DHT22;18310;55.586;12.286;2022-10-16T05:10:30;16.30;78.30
31731;DHT22;18310;55.586;12.286;2022-10-16T05:13:33;16.30;78.30
31731;DHT22;18310;55.586;12.286;2022-10-16T05:16:37;16.30;78.10
31731;DHT22;18310;55.586;12.286;2022-10-16T05:19:43;16.40;78.10
31731;DHT22;18310;55.586;12.286;2022-10-16T05:22:47;16.40;77.90
31731;DHT22;18310;55.586;12.286;2022-10-16T05:25:54;16.40;77.80
31731;DHT22;18310;55.586;12.286;2022-10-16T05:29:01;16.40;77.70
31731;DHT22;18310;55.586;12.286;2022-10-16T05:32:05;16.40;77.70
31731;DHT22;18310;55.586;12.286;2022-10-16T05:35:09;16.40;77.60
31731;DHT22;18310;55.586;12.286;2022-10-16T05:38:14;16.40;77.60
31731;DHT22;18310;55.586;12.286;2022-10-16T05:41:18;16.20;77.90
31731;DHT22;18310;55.586;12.286;2022-10-16T05:44:23;16.40;77.50
31731;DHT22;18310;55.586;12.286;2022-10-16T05:47:27;16.40;77.60
31731;DHT22;18310;55.586;12.286;2022-10-16T05:50:37;16.40;77.50
31731;DHT22;18310;55.586;12.286;2022-10-16T05:53:43;16.40;77.30
31731;DHT22;18310;55.586;12.286;2022-10-16T05:56:46;16.50;77.40
31731;DHT22;18310;55.586;12.286;2022-10-16T05:59:50;16.40;77.30
31731;DHT22;18310;55.586;12.286;2022-10-16T06:02:53;16.40;77.00
31731;DHT22;18310;55.586;12.286;2022-10-16T06:05:59;16.50;77.10
31731;DHT22;18310;55.586;12.286;2022-10-16T06:09:13;16.40;76.90
31731;DHT22;18310;55.586;12.286;2022-10-16T06:12:17;16.40;77.40
31731;DHT22;18310;55.586;12.286;2022-10-16T06:15:20;16.60;76.80
31731;DHT22;18310;55.586;12.286;2022-10-16T06:18:23;16.40;76.70
31731;DHT22;18310;55.586;12.286;2022-10-16T06:21:29;16.40;76.40
31731;DHT22;18310;55.586;12.286;2022-10-16T06:24:33;16.30;76.10
31731;DHT22;18310;55.586;12.286;2022-10-16T06:27:39;16.30;76.10
31731;DHT22;18310;55.586;12.286;2022-10-16T06:30:42;16.20;76.10
31731;DHT22;18310;55.586;12.286;2022-10-16T06:33:50;16.20;76.20
31731;DHT22;18310;55.586;12.286;2022-10-16T06:36:56;16.10;76.20
31731;DHT22;18310;55.586;12.286;2022-10-16T06:39:59;15.90;76.20
31731;DHT22;18310;55.586;12.286;2022-10-16T06:43:02;16.10;76.30
31731;DHT22;18310;55.586;12.286;2022-10-16T06:46:07;16.00;76.30
31731;DHT22;18310;55.586;12.286;2022-10-16T06:49:14;16.00;76.30
31731;DHT22;18310;55.586;12.286;2022-10-16T06:52:27;16.00;76.50
31731;DHT22;18310;55.586;12.286;2022-10-16T06:55:32;16.00;76.50
31731;DHT22;18310;55.586;12.286;2022-10-16T06:58:36;16.00;76.50
31731;DHT22;18310;55.586;12.286;2022-10-16T07:01:40;16.00;76.60
31731;DHT22;18310;55.586;12.286;2022-10-16T07:04:43;16.10;76.80
31731;DHT22;18310;55.586;12.286;2022-10-16T07:07:50;16.00;76.80
31731;DHT22;18310;55.586;12.286;2022-10-16T07:10:58;16.60;77.20
31731;DHT22;18310;55.586;12.286;2022-10-16T07:14:02;16.10;76.90
31731;DHT22;18310;55.586;12.286;2022-10-16T07:17:07;16.10;77.50
31731;DHT22;18310;55.586;12.286;2022-10-16T07:20:10;16.10;77.00
31731;DHT22;18310;55.586;12.286;2022-10-16T07:23:15;16.20;77.10
31731;DHT22;18310;55.586;12.286;2022-10-16T07:26:18;16.30;77.10
31731;DHT22;18310;55.586;12.286;2022-10-16T07:29:22;16.40;76.90
31731;DHT22;18310;55.586;12.286;2022-10-16T07:32:26;16.40;76.80
31731;DHT22;18310;55.586;12.286;2022-10-16T07:35:32;16.50;76.80
31731;DHT22;18310;55.586;12.286;2022-10-16T07:38:37;16.60;76.70
31731;DHT22;18310;55.586;12.286;2022-10-16T07:41:42;16.70;76.30
31731;DHT22;18310;55.586;12.286;2022-10-16T07:44:48;16.80;76.50
31731;DHT22;18310;55.586;12.286;2022-10-16T07:47:51;16.90;75.90
31731;DHT22;18310;55.586;12.286;2022-10-16T07:50:58;16.90;75.90
31731;DHT22;18310;55.586;12.286;2022-10-16T07:54:04;17.00;75.40
31731;DHT22;18310;55.586;12.286;2022-10-16T07:57:07;17.10;75.20
31731;DHT22;18310;55.586;12.286;2022-10-16T08:00:11;17.20;75.10
31731;DHT22;18310;55.586;12.286;2022-10-16T08:03:15;17.20;74.50
31731;DHT22;18310;55.586;12.286;2022-10-16T08:06:20;17.30;74.50
31731;DHT22;18310;55.586;12.286;2022-10-16T08:09:30;17.70;74.50
31731;DHT22;18310;55.586;12.286;2022-10-16T08:12:37;17.40;74.60
31731;DHT22;18310;55.586;12.286;2022-10-16T08:15:40;17.50;74.80
31731;DHT22;18310;55.586;12.286;2022-10-16T08:18:45;17.60;74.90
31731;DHT22;18310;55.586;12.286;2022-10-16T08:21:53;17.80;74.50
31731;DHT22;18310;55.586;12.286;2022-10-16T08:24:58;17.80;74.00
31731;DHT22;18310;55.586;12.286;2022-10-16T08:28:03;17.90;73.10
31731;DHT22;18310;55.586;12.286;2022-10-16T08:31:09;18.00;72.50
31731;DHT22;18310;55.586;12.286;2022-10-16T08:34:15;18.00;72.50
31731;DHT22;18310;55.586;12.286;2022-10-16T08:37:18;18.10;72.20
31731;DHT22;18310;55.586;12.286;2022-10-16T08:40:25;18.50;72.30
31731;DHT22;18310;55.586;12.286;2022-10-16T08:43:41;18.00;71.50
31731;DHT22;18310;55.586;12.286;2022-10-16T08:47:02;18.10;71.30
31731;DHT22;18310;55.586;12.286;2022-10-16T08:50:22;18.00;71.40
31731;DHT22;18310;55.586;12.286;2022-10-16T08:53:33;18.10;71.80
31731;DHT22;18310;55.586;12.286;2022-10-16T08:56:47;18.10;71.80
31731;DHT22;18310;55.586;12.286;2022-10-16T08:59:51;18.20;71.80
31731;DHT22;18310;55.586;12.286;2022-10-16T09:03:03;18.30;71.80
31731;DHT22;18310;55.586;12.286;2022-10-16T09:06:25;18.40;71.00
31731;DHT22;18310;55.586;12.286;2022-10-16T09:09:53;18.50;70.80
31731;DHT22;18310;55.586;12.286;2022-10-16T09:13:16;18.60;70.00
31731;DHT22;18310;55.586;12.286;2022-10-16T09:16:27;18.70;69.30
31731;DHT22;18310;55.586;12.286;2022-10-16T09:19:41;18.80;69.60
31731;DHT22;18310;55.586;12.286;2022-10-16T09:22:51;18.80;69.40
31731;DHT22;18310;55.586;12.286;2022-10-16T09:25:59;18.90;68.90
31731;DHT22;18310;55.586;12.286;2022-10-16T09:29:08;18.90;68.80
31731;DHT22;18310;55.586;12.286;2022-10-16T09:32:15;19.00;68.60
31731;DHT22;18310;55.586;12.286;2022-10-16T09:35:27;19.10;68.30
31731;DHT22;18310;55.586;12.286;2022-10-16T09:38:37;19.10;67.80
31731;DHT22;18310;55.586;12.286;2022-10-16T09:41:43;19.10;67.90
31731;DHT22;18310;55.586;12.286;2022-10-16T09:44:51;19.10;67.10
31731;DHT22;18310;55.586;12.286;2022-10-16T09:47:56;19.10;67.40
31731;DHT22;18310;55.586;12.286;2022-10-16T09:51:01;19.20;67.40
31731;DHT22;18310;55.586;12.286;2022-10-16T09:54:14;19.20;67.40
31731;DHT22;18310;55.586;12.286;2022-10-16T09:57:20;19.30;66.80
31731;DHT22;18310;55.586;12.286;2022-10-16T10:00:27;19.30;67.50
31731;DHT22;18310;55.586;12.286;2022-10-16T10:03:36;19.40;66.40
31731;DHT22;18310;55.586;12.286;2022-10-16T10:06:45;19.50;66.00
31731;DHT22;18310;55.586;12.286;2022-10-16T10:09:50;19.50;66.20
31731;DHT22;18310;55.586;12.286;2022-10-16T10:12:54;19.50;66.30
31731;DHT22;18310;55.586;12.286;2022-10-16T10:16:00;19.60;66.00
31731;DHT22;18310;55.586;12.286;2022-10-16T10:19:04;19.60;65.90
31731;DHT22;18310;55.586;12.286;2022-10-16T10:22:25;19.70;65.70
31731;DHT22;18310;55.586;12.286;2022-10-16T10:25:48;19.70;63.90
31731;DHT22;18310;55.586;12.286;2022-10-16T10:29:02;19.70;63.80
31731;DHT22;18310;55.586;12.286;2022-10-16T10:32:25;19.80;64.30
31731;DHT22;18310;55.586;12.286;2022-10-16T10:35:44;19.80;63.90
31731;DHT22;18310;55.586;12.286;2022-10-16T10:38:58;19.80;63.90
31731;DHT22;18310;55.586;12.286;2022-10-16T10:42:13;19.80;64.00
31731;DHT22;18310;55.586;12.286;2022-10-16T10:45:27;19.90;63.10
31731;DHT22;18310;55.586;12.286;2022-10-16T10:49:09;19.90;63.50
31731;DHT22;18310;55.586;12.286;2022-10-16T10:52:33;19.90;62.70
31731;DHT22;18310;55.586;12.286;2022-10-16T10:55:48;20.30;62.70
31731;DHT22;18310;55.586;12.286;2022-10-16T10:59:12;20.00;62.70
31731;DHT22;18310;55.586;12.286;2022-10-16T11:02:40;20.00;61.30
31731;DHT22;18310;55.586;12.286;2022-10-16T11:05:51;20.00;62.00
31731;DHT22;18310;55.586;12.286;2022-10-16T11:09:02;20.00;61.70
31731;DHT22;18310;55.586;12.286;2022-10-16T11:12:17;20.00;61.90
31731;DHT22;18310;55.586;12.286;2022-10-16T11:15:30;20.10;61.70
31731;DHT22;18310;55.586;12.286;2022-10-16T11:18:46;20.30;61.40
31731;DHT22;18310;55.586;12.286;2022-10-16T11:22:01;20.10;61.10
31731;DHT22;18310;55.586;12.286;2022-10-16T11:25:14;20.20;60.30
31731;DHT22;18310;55.586;12.286;2022-10-16T11:28:27;20.20;60.80
31731;DHT22;18310;55.586;12.286;2022-10-16T11:31:38;20.20;60.40
31731;DHT22;18310;55.586;12.286;2022-10-16T11:34:49;20.20;60.50
31731;DHT22;18310;55.586;12.286;2022-10-16T11:37:58;20.20;60.60
31731;DHT22;18310;55.586;12.286;2022-10-16T11:41:17;20.20;60.50
31731;DHT22;18310;55.586;12.286;2022-10-16T11:44:32;20.20;60.60
31731;DHT22;18310;55.586;12.286;2022-10-16T11:47:48;20.20;59.50
31731;DHT22;18310;55.586;12.286;2022-10-16T11:51:06;20.20;60.60
31731;DHT22;18310;55.586;12.286;2022-10-16T11:54:26;20.20;59.90
31731;DHT22;18310;55.586;12.286;2022-10-16T11:57:40;20.20;59.80
31731;DHT22;18310;55.586;12.286;2022-10-16T12:00:55;20.30;59.90
31731;DHT22;18310;55.586;12.286;2022-10-16T12:04:06;20.10;59.40
31731;DHT22;18310;55.586;12.286;2022-10-16T12:07:24;20.20;59.10
31731;DHT22;18310;55.586;12.286;2022-10-16T12:10:39;20.10;60.10
31731;DHT22;18310;55.586;12.286;2022-10-16T12:13:45;20.10;60.10
31731;DHT22;18310;55.586;12.286;2022-10-16T12:16:55;20.10;60.00
31731;DHT22;18310;55.586;12.286;2022-10-16T12:20:17;20.00;59.50
31731;DHT22;18310;55.586;12.286;2022-10-16T12:23:28;20.00;60.00
31731;DHT22;18310;55.586;12.286;2022-10-16T12:26:37;19.90;59.70
31731;DHT22;18310;55.586;12.286;2022-10-16T12:29:44;20.20;59.90
31731;DHT22;18310;55.586;12.286;2022-10-16T12:32:53;19.90;60.00
31731;DHT22;18310;55.586;12.286;2022-10-16T12:36:01;19.90;59.20
31731;DHT22;18310;55.586;12.286;2022-10-16T12:39:21;19.40;59.10
31731;DHT22;18310;55.586;12.286;2022-10-16T12:42:34;19.90;58.80
31731;DHT22;18310;55.586;12.286;2022-10-16T12:45:38;19.90;58.80
31731;DHT22;18310;55.586;12.286;2022-10-16T12:48:43;19.90;59.70
31731;DHT22;18310;55.586;12.286;2022-10-16T12:52:25;19.80;59.70
31731;DHT22;18310;55.586;12.286;2022-10-16T12:55:35;20.00;58.80
31731;DHT22;18310;55.586;12.286;2022-10-16T12:59:00;19.80;58.90
31731;DHT22;18310;55.586;12.286;2022-10-16T13:02:38;19.90;58.80
31731;DHT22;18310;55.586;12.286;2022-10-16T13:06:10;19.40;58.90
31731;DHT22;18310;55.586;12.286;2022-10-16T13:09:47;19.80;59.40
31731;DHT22;18310;55.586;12.286;2022-10-16T13:16:51;19.80;59.10
31731;DHT22;18310;55.586;12.286;2022-10-16T13:20:12;19.90;59.30
31731;DHT22;18310;55.586;12.286;2022-10-16T13:23:26;19.80;59.40
31731;DHT22;18310;55.586;12.286;2022-10-16T13:26:42;19.80;59.50
31731;DHT22;18310;55.586;12.286;2022-10-16T13:30:01;19.80;59.60
31731;DHT22;18310;55.586;12.286;2022-10-16T13:33:16;19.70;59.50
31731;DHT22;18310;55.586;12.286;2022-10-16T13:36:27;19.60;59.60
31731;DHT22;18310;55.586;12.286;2022-10-16T13:39:32;19.50;60.00
31731;DHT22;18310;55.586;12.286;2022-10-16T13:42:35;19.50;61.40
31731;DHT22;18310;55.586;12.286;2022-10-16T13:45:39;20.00;61.50
31731;DHT22;18310;55.586;12.286;2022-10-16T13:48:55;19.40;61.90
31731;DHT22;18310;55.586;12.286;2022-10-16T13:52:00;19.20;62.40
31731;DHT22;18310;55.586;12.286;2022-10-16T13:55:04;19.00;62.70
31731;DHT22;18310;55.586;12.286;2022-10-16T13:58:14;18.80;63.10
31731;DHT22;18310;55.586;12.286;2022-10-16T14:01:22;18.60;63.70
31731;DHT22;18310;55.586;12.286;2022-10-16T14:04:39;18.50;64.10
31731;DHT22;18310;55.586;12.286;2022-10-16T14:07:43;18.30;64.90
31731;DHT22;18310;55.586;12.286;2022-10-16T14:10:49;18.20;65.10
31731;DHT22;18310;55.586;12.286;2022-10-16T14:13:56;18.00;65.60
31731;DHT22;18310;55.586;12.286;2022-10-16T14:17:02;17.80;65.70
31731;DHT22;18310;55.586;12.286;2022-10-16T14:20:14;17.90;66.00
31731;DHT22;18310;55.586;12.286;2022-10-16T14:23:22;17.80;66.50
31731;DHT22;18310;55.586;12.286;2022-10-16T14:26:41;17.80;66.50
31731;DHT22;18310;55.586;12.286;2022-10-16T14:30:13;17.70;66.90
31731;DHT22;18310;55.586;12.286;2022-10-16T14:33:24;17.60;66.80
31731;DHT22;18310;55.586;12.286;2022-10-16T14:36:41;17.60;66.50
31731;DHT22;18310;55.586;12.286;2022-10-16T14:39:49;17.50;66.30
31731;DHT22;18310;55.586;12.286;2022-10-16T14:42:53;17.00;65.90
31731;DHT22;18310;55.586;12.286;2022-10-16T14:45:57;17.40;66.00
31731;DHT22;18310;55.586;12.286;2022-10-16T14:49:03;17.40;66.00
31731;DHT22;18310;55.586;12.286;2022-10-16T14:52:19;17.40;65.80
31731;DHT22;18310;55.586;12.286;2022-10-16T14:55:23;17.40;65.50
31731;DHT22;18310;55.586;12.286;2022-10-16T14:58:28;17.40;65.40
31731;DHT22;18310;55.586;12.286;2022-10-16T15:01:33;17.40;65.30
31731;DHT22;18310;55.586;12.286;2022-10-16T15:04:37;17.30;65.10
31731;DHT22;18310;55.586;12.286;2022-10-16T15:07:45;17.30;64.90
31731;DHT22;18310;55.586;12.286;2022-10-16T15:10:48;17.30;64.40
31731;DHT22;18310;55.586;12.286;2022-10-16T15:13:52;17.30;64.40
31731;DHT22;18310;55.586;12.286;2022-10-16T15:16:59;17.30;64.40
31731;DHT22;18310;55.586;12.286;2022-10-16T15:20:03;17.30;64.00
31731;DHT22;18310;55.586;12.286;2022-10-16T15:23:14;17.20;64.00
31731;DHT22;18310;55.586;12.286;2022-10-16T15:26:20;17.20;63.30
31731;DHT22;18310;55.586;12.286;2022-10-16T15:29:23;17.20;63.60
31731;DHT22;18310;55.586;12.286;2022-10-16T15:32:27;17.10;63.20
31731;DHT22;18310;55.586;12.286;2022-10-16T15:35:30;17.10;63.50
31731;DHT22;18310;55.586;12.286;2022-10-16T15:38:35;17.10;63.40
31731;DHT22;18310;55.586;12.286;2022-10-16T15:41:40;17.00;63.30
31731;DHT22;18310;55.586;12.286;2022-10-16T15:44:44;16.90;63.30
31731;DHT22;18310;55.586;12.286;2022-10-16T15:47:49;16.90;63.30
31731;DHT22;18310;55.586;12.286;2022-10-16T15:50:56;16.80;63.30
31731;DHT22;18310;55.586;12.286;2022-10-16T15:54:00;16.80;63.30
31731;DHT22;18310;55.586;12.286;2022-10-16T15:57:06;16.70;63.30
31731;DHT22;18310;55.586;12.286;2022-10-16T16:00:13;16.40;63.30
31731;DHT22;18310;55.586;12.286;2022-10-16T16:03:21;16.60;63.50
31731;DHT22;18310;55.586;12.286;2022-10-16T16:06:25;16.60;63.50
31731;DHT22;18310;55.586;12.286;2022-10-16T16:09:31;16.50;63.50
31731;DHT22;18310;55.586;12.286;2022-10-16T16:12:35;16.50;64.00
31731;DHT22;18310;55.586;12.286;2022-10-16T16:15:41;16.40;63.50
31731;DHT22;18310;55.586;12.286;2022-10-16T16:18:44;16.30;63.60
31731;DHT22;18310;55.586;12.286;2022-10-16T16:21:48;16.30;63.60
31731;DHT22;18310;55.586;12.286;2022-10-16T16:24:54;16.10;63.50
31731;DHT22;18310;55.586;12.286;2022-10-16T16:27:57;16.20;63.60
31731;DHT22;18310;55.586;12.286;2022-10-16T16:31:02;16.20;63.70
31731;DHT22;18310;55.586;12.286;2022-10-16T16:34:06;16.10;63.60
31731;DHT22;18310;55.586;12.286;2022-10-16T16:37:09;16.10;63.50
31731;DHT22;18310;55.586;12.286;2022-10-16T16:40:15;16.00;63.50
31731;DHT22;18310;55.586;12.286;2022-10-16T16:43:17;16.00;63.40
31731;DHT22;18310;55.586;12.286;2022-10-16T16:46:22;15.90;63.40
31731;DHT22;18310;55.586;12.286;2022-10-16T16:49:25;15.90;63.50
31731;DHT22;18310;55.586;12.286;2022-10-16T16:52:30;15.80;63.50
31731;DHT22;18310;55.586;12.286;2022-10-16T16:55:36;15.70;63.50
31731;DHT22;18310;55.586;12.286;2022-10-16T16:58:40;15.70;63.60
31731;DHT22;18310;55.586;12.286;2022-10-16T17:01:44;15.70;63.70
31731;DHT22;18310;55.586;12.286;2022-10-16T17:04:49;15.60;63.80
31731;DHT22;18310;55.586;12.286;2022-10-16T17:07:52;15.50;63.90
31731;DHT22;18310;55.586;12.286;2022-10-16T17:10:58;15.50;64.00
31731;DHT22;18310;55.586;12.286;2022-10-16T17:14:02;15.50;64.20
31731;DHT22;18310;55.586;12.286;2022-10-16T17:17:07;15.40;64.30
31731;DHT22;18310;55.586;12.286;2022-10-16T17:20:11;15.30;64.40
31731;DHT22;18310;55.586;12.286;2022-10-16T17:23:16;15.30;64.50
31731;DHT22;18310;55.586;12.286;2022-10-16T17:26:24;15.20;64.60
31731;DHT22;18310;55.586;12.286;2022-10-16T17:29:27;15.20;64.70
31731;DHT22;18310;55.586;12.286;2022-10-16T17:32:32;15.20;64.80
31731;DHT22;18310;55.586;12.286;2022-10-16T17:35:36;15.20;64.90
31731;DHT22;18310;55.586;12.286;2022-10-16T17:38:42;15.10;65.00
31731;DHT22;18310;55.586;12.286;2022-10-16T17:41:52;15.10;65.10
31731;DHT22;18310;55.586;12.286;2022-10-16T17:44:55;15.00;65.30
31731;DHT22;18310;55.586;12.286;2022-10-16T17:48:00;15.00;65.20
31731;DHT22;18310;55.586;12.286;2022-10-16T17:51:05;15.00;65.40
31731;DHT22;18310;55.586;12.286;2022-10-16T17:54:10;14.90;65.40
31731;DHT22;18310;55.586;12.286;2022-10-16T17:57:20;14.90;65.50
31731;DHT22;18310;55.586;12.286;2022-10-16T18:00:24;14.90;65.70
31731;DHT22;18310;55.586;12.286;2022-10-16T18:03:28;14.80;66.20
31731;DHT22;18310;55.586;12.286;2022-10-16T18:06:32;14.80;65.90
31731;DHT22;18310;55.586;12.286;2022-10-16T18:09:36;14.70;66.00
31731;DHT22;18310;55.586;12.286;2022-10-16T18:13:01;14.70;66.00
31731;DHT22;18310;55.586;12.286;2022-10-16T18:16:09;14.60;66.00
31731;DHT22;18310;55.586;12.286;2022-10-16T18:19:19;14.00;65.80
31731;DHT22;18310;55.586;12.286;2022-10-16T18:22:24;14.60;66.20
31731;DHT22;18310;55.586;12.286;2022-10-16T18:25:32;14.60;66.20
31731;DHT22;18310;55.586;12.286;2022-10-16T18:28:39;14.50;66.20
31731;DHT22;18310;55.586;12.286;2022-10-16T18:31:45;14.50;66.30
31731;DHT22;18310;55.586;12.286;2022-10-16T18:34:51;14.50;66.30
31731;DHT22;18310;55.586;12.286;2022-10-16T18:37:54;14.40;66.40
31731;DHT22;18310;55.586;12.286;2022-10-16T18:41:01;14.40;66.40
31731;DHT22;18310;55.586;12.286;2022-10-16T18:44:08;14.40;66.40
31731;DHT22;18310;55.586;12.286;2022-10-16T18:47:14;14.30;66.40
31731;DHT22;18310;55.586;12.286;2022-10-16T18:50:18;14.30;66.40
31731;DHT22;18310;55.586;12.286;2022-10-16T18:53:22;14.30;66.40
31731;DHT22;18310;55.586;12.286;2022-10-16T18:56:26;14.30;66.40
31731;DHT22;18310;55.586;12.286;2022-10-16T18:59:34;14.30;66.40
31731;DHT22;18310;55.586;12.286;2022-10-16T19:02:40;14.20;66.40
31731;DHT22;18310;55.586;12.286;2022-10-16T19:05:44;14.30;66.50
31731;DHT22;18310;55.586;12.286;2022-10-16T19:08:48;14.20;66.40
31731;DHT22;18310;55.586;12.286;2022-10-16T19:11:51;14.20;66.40
31731;DHT22;18310;55.586;12.286;2022-10-16T19:14:56;14.10;66.40
31731;DHT22;18310;55.586;12.286;2022-10-16T19:17:59;14.10;66.40
31731;DHT22;18310;55.586;12.286;2022-10-16T19:21:03;14.10;66.40
31731;DHT22;18310;55.586;12.286;2022-10-16T19:24:10;14.00;66.40
31731;DHT22;18310;55.586;12.286;2022-10-16T19:27:16;14.00;66.50
31731;DHT22;18310;55.586;12.286;2022-10-16T19:30:21;14.00;66.60
31731;DHT22;18310;55.586;12.286;2022-10-16T19:33:25;13.90;66.70